sensor_id;sensor_type;location;lat;lon;timestamp;P1;durP1;ratioP1;P2;durP2;ratioP2
55559;SDS011;41414;53.250;6.514;2022-09-27T00:00:27;7.00;;;1.13;;
55559;SDS011;41414;53.250;6.514;2022-09-27T00:02:53;7.72;;;0.90;;
55559;SDS011;41414;53.250;6.514;2022-09-27T00:05:19;6.68;;;0.90;;
55559;SDS011;41414;53.250;6.514;2022-09-27T00:07:45;7.55;;;1.05;;
55559;SDS011;41414;53.250;6.514;2022-09-27T00:10:12;5.40;;;1.02;;
55559;SDS011;41414;53.250;6.514;2022-09-27T00:12:38;9.45;;;1.30;;
55559;SDS011;41414;53.250;6.514;2022-09-27T00:15:04;7.55;;;0.90;;
55559;SDS011;41414;53.250;6.514;2022-09-27T00:17:31;6.70;;;0.95;;
55559;SDS011;41414;53.250;6.514;2022-09-27T00:19:58;8.02;;;1.15;;
55559;SDS011;41414;53.250;6.514;2022-09-27T00:22:24;7.65;;;1.08;;
55559;SDS011;41414;53.250;6.514;2022-09-27T00:24:51;6.18;;;1.13;;
55559;SDS011;41414;53.250;6.514;2022-09-27T00:27:17;6.30;;;1.10;;
55559;SDS011;41414;53.250;6.514;2022-09-27T00:29:44;10.30;;;1.60;;
55559;SDS011;41414;53.250;6.514;2022-09-27T00:32:10;7.30;;;0.80;;
55559;SDS011;41414;53.250;6.514;2022-09-27T00:34:37;7.30;;;0.80;;
55559;SDS011;41414;53.250;6.514;2022-09-27T00:37:03;11.90;;;1.08;;
55559;SDS011;41414;53.250;6.514;2022-09-27T00:39:30;6.75;;;0.73;;
55559;SDS011;41414;53.250;6.514;2022-09-27T00:41:56;7.88;;;1.20;;
55559;SDS011;41414;53.250;6.514;2022-09-27T00:49:34;6.63;;;1.20;;
55559;SDS011;41414;53.250;6.514;2022-09-27T00:52:03;10.60;;;0.85;;
55559;SDS011;41414;53.250;6.514;2022-09-27T00:54:30;6.40;;;1.25;;
55559;SDS011;41414;53.250;6.514;2022-09-27T00:56:57;6.95;;;0.85;;
55559;SDS011;41414;53.250;6.514;2022-09-27T00:59:25;8.63;;;1.42;;
55559;SDS011;41414;53.250;6.514;2022-09-27T01:01:53;8.95;;;1.17;;
55559;SDS011;41414;53.250;6.514;2022-09-27T01:04:21;5.20;;;0.80;;
55559;SDS011;41414;53.250;6.514;2022-09-27T01:06:48;2.47;;;0.80;;
55559;SDS011;41414;53.250;6.514;2022-09-27T01:09:14;6.35;;;1.23;;
55559;SDS011;41414;53.250;6.514;2022-09-27T01:11:47;6.53;;;1.00;;
55559;SDS011;41414;53.250;6.514;2022-09-27T01:14:21;6.80;;;1.30;;
55559;SDS011;41414;53.250;6.514;2022-09-27T01:16:58;5.15;;;0.95;;
55559;SDS011;41414;53.250;6.514;2022-09-27T01:22:03;6.78;;;1.00;;
55559;SDS011;41414;53.250;6.514;2022-09-27T01:24:42;8.32;;;0.98;;
55559;SDS011;41414;53.250;6.514;2022-09-27T01:29:48;3.28;;;1.00;;
55559;SDS011;41414;53.250;6.514;2022-09-27T01:32:30;8.27;;;1.15;;
55559;SDS011;41414;53.250;6.514;2022-09-27T01:35:01;5.35;;;0.88;;
55559;SDS011;41414;53.250;6.514;2022-09-27T01:47:18;9.88;;;1.00;;
55559;SDS011;41414;53.250;6.514;2022-09-27T01:49:51;4.32;;;1.65;;
55559;SDS011;41414;53.250;6.514;2022-09-27T01:52:20;1.70;;;0.45;;
55559;SDS011;41414;53.250;6.514;2022-09-27T01:54:49;5.68;;;0.70;;
55559;SDS011;41414;53.250;6.514;2022-09-27T01:57:18;4.40;;;0.68;;
55559;SDS011;41414;53.250;6.514;2022-09-27T01:59:48;5.32;;;0.80;;
55559;SDS011;41414;53.250;6.514;2022-09-27T02:02:15;5.03;;;0.90;;
55559;SDS011;41414;53.250;6.514;2022-09-27T02:04:43;4.45;;;0.90;;
55559;SDS011;41414;53.250;6.514;2022-09-27T02:07:14;10.65;;;1.25;;
55559;SDS011;41414;53.250;6.514;2022-09-27T02:09:47;7.28;;;1.30;;
55559;SDS011;41414;53.250;6.514;2022-09-27T02:12:16;4.85;;;1.10;;
55559;SDS011;41414;53.250;6.514;2022-09-27T02:14:45;4.63;;;0.60;;
55559;SDS011;41414;53.250;6.514;2022-09-27T02:17:29;5.75;;;0.80;;
55559;SDS011;41414;53.250;6.514;2022-09-27T02:22:37;2.40;;;0.47;;
55559;SDS011;41414;53.250;6.514;2022-09-27T02:25:18;1.30;;;0.30;;
55559;SDS011;41414;53.250;6.514;2022-09-27T02:27:52;4.72;;;0.35;;
55559;SDS011;41414;53.250;6.514;2022-09-27T02:30:19;4.10;;;0.65;;
55559;SDS011;41414;53.250;6.514;2022-09-27T02:32:46;1.45;;;0.35;;
55559;SDS011;41414;53.250;6.514;2022-09-27T02:35:18;3.40;;;0.52;;
55559;SDS011;41414;53.250;6.514;2022-09-27T02:37:47;3.03;;;0.43;;
55559;SDS011;41414;53.250;6.514;2022-09-27T02:40:13;6.60;;;0.70;;
55559;SDS011;41414;53.250;6.514;2022-09-27T02:42:41;13.32;;;0.80;;
55559;SDS011;41414;53.250;6.514;2022-09-27T02:45:08;6.85;;;1.77;;
55559;SDS011;41414;53.250;6.514;2022-09-27T02:50:11;5.10;;;1.10;;
55559;SDS011;41414;53.250;6.514;2022-09-27T02:52:46;9.18;;;1.20;;
55559;SDS011;41414;53.250;6.514;2022-09-27T02:55:18;13.23;;;1.52;;
55559;SDS011;41414;53.250;6.514;2022-09-27T03:00:41;5.38;;;1.08;;
55559;SDS011;41414;53.250;6.514;2022-09-27T03:03:20;5.68;;;0.80;;
55559;SDS011;41414;53.250;6.514;2022-09-27T03:05:49;8.43;;;1.63;;
55559;SDS011;41414;53.250;6.514;2022-09-27T03:08:16;3.08;;;0.60;;
55559;SDS011;41414;53.250;6.514;2022-09-27T03:10:43;4.20;;;0.82;;
55559;SDS011;41414;53.250;6.514;2022-09-27T03:13:09;4.78;;;0.50;;
55559;SDS011;41414;53.250;6.514;2022-09-27T03:15:36;4.30;;;0.82;;
55559;SDS011;41414;53.250;6.514;2022-09-27T03:18:02;5.22;;;0.70;;
55559;SDS011;41414;53.250;6.514;2022-09-27T03:20:28;5.40;;;0.80;;
55559;SDS011;41414;53.250;6.514;2022-09-27T03:22:55;4.63;;;0.63;;
55559;SDS011;41414;53.250;6.514;2022-09-27T03:25:21;4.32;;;0.85;;
55559;SDS011;41414;53.250;6.514;2022-09-27T03:27:47;5.32;;;0.95;;
55559;SDS011;41414;53.250;6.514;2022-09-27T03:30:14;7.07;;;0.98;;
55559;SDS011;41414;53.250;6.514;2022-09-27T03:32:42;5.35;;;0.88;;
55559;SDS011;41414;53.250;6.514;2022-09-27T03:35:08;4.93;;;0.90;;
55559;SDS011;41414;53.250;6.514;2022-09-27T03:37:35;7.18;;;1.20;;
55559;SDS011;41414;53.250;6.514;2022-09-27T03:40:03;3.45;;;0.85;;
55559;SDS011;41414;53.250;6.514;2022-09-27T03:42:29;4.75;;;0.80;;
55559;SDS011;41414;53.250;6.514;2022-09-27T03:44:55;6.82;;;1.52;;
55559;SDS011;41414;53.250;6.514;2022-09-27T03:47:22;3.33;;;0.95;;
55559;SDS011;41414;53.250;6.514;2022-09-27T03:49:48;5.80;;;0.85;;
55559;SDS011;41414;53.250;6.514;2022-09-27T03:52:14;4.07;;;1.02;;
55559;SDS011;41414;53.250;6.514;2022-09-27T03:54:42;5.97;;;0.90;;
55559;SDS011;41414;53.250;6.514;2022-09-27T03:57:09;5.90;;;1.10;;
55559;SDS011;41414;53.250;6.514;2022-09-27T03:59:35;10.85;;;1.10;;
55559;SDS011;41414;53.250;6.514;2022-09-27T04:02:01;5.50;;;1.52;;
55559;SDS011;41414;53.250;6.514;2022-09-27T04:04:27;6.88;;;1.30;;
55559;SDS011;41414;53.250;6.514;2022-09-27T04:06:53;6.65;;;1.08;;
55559;SDS011;41414;53.250;6.514;2022-09-27T04:09:21;9.40;;;1.65;;
55559;SDS011;41414;53.250;6.514;2022-09-27T04:11:47;8.52;;;0.88;;
55559;SDS011;41414;53.250;6.514;2022-09-27T04:14:13;6.68;;;1.20;;
55559;SDS011;41414;53.250;6.514;2022-09-27T04:16:39;4.53;;;1.10;;
55559;SDS011;41414;53.250;6.514;2022-09-27T04:19:06;14.40;;;1.60;;
55559;SDS011;41414;53.250;6.514;2022-09-27T04:21:33;10.15;;;1.45;;
55559;SDS011;41414;53.250;6.514;2022-09-27T04:23:59;11.55;;;1.20;;
55559;SDS011;41414;53.250;6.514;2022-09-27T04:26:25;4.35;;;1.05;;
55559;SDS011;41414;53.250;6.514;2022-09-27T04:28:52;7.93;;;1.20;;
55559;SDS011;41414;53.250;6.514;2022-09-27T04:31:18;5.13;;;1.10;;
55559;SDS011;41414;53.250;6.514;2022-09-27T04:33:44;7.15;;;1.15;;
55559;SDS011;41414;53.250;6.514;2022-09-27T04:36:16;5.65;;;0.80;;
55559;SDS011;41414;53.250;6.514;2022-09-27T04:38:51;6.45;;;0.90;;
55559;SDS011;41414;53.250;6.514;2022-09-27T04:41:17;4.80;;;0.95;;
55559;SDS011;41414;53.250;6.514;2022-09-27T04:43:44;8.30;;;0.90;;
55559;SDS011;41414;53.250;6.514;2022-09-27T04:46:10;3.40;;;1.02;;
55559;SDS011;41414;53.250;6.514;2022-09-27T04:48:36;6.88;;;0.90;;
55559;SDS011;41414;53.250;6.514;2022-09-27T04:51:02;5.55;;;0.80;;
55559;SDS011;41414;53.250;6.514;2022-09-27T04:53:28;7.15;;;1.02;;
55559;SDS011;41414;53.250;6.514;2022-09-27T04:55:55;5.60;;;1.25;;
55559;SDS011;41414;53.250;6.514;2022-09-27T04:58:21;3.58;;;0.55;;
55559;SDS011;41414;53.250;6.514;2022-09-27T05:00:48;9.65;;;0.88;;
55559;SDS011;41414;53.250;6.514;2022-09-27T05:03:20;5.82;;;1.10;;
55559;SDS011;41414;53.250;6.514;2022-09-27T05:05:46;5.28;;;1.30;;
55559;SDS011;41414;53.250;6.514;2022-09-27T05:08:12;3.88;;;0.90;;
55559;SDS011;41414;53.250;6.514;2022-09-27T05:10:38;2.75;;;0.68;;
55559;SDS011;41414;53.250;6.514;2022-09-27T05:13:05;5.20;;;0.80;;
55559;SDS011;41414;53.250;6.514;2022-09-27T05:15:31;5.65;;;1.17;;
55559;SDS011;41414;53.250;6.514;2022-09-27T05:17:58;5.47;;;1.00;;
55559;SDS011;41414;53.250;6.514;2022-09-27T05:20:24;7.15;;;0.90;;
55559;SDS011;41414;53.250;6.514;2022-09-27T05:22:51;8.15;;;1.00;;
55559;SDS011;41414;53.250;6.514;2022-09-27T05:25:17;3.17;;;1.10;;
55559;SDS011;41414;53.250;6.514;2022-09-27T05:27:43;9.63;;;1.27;;
55559;SDS011;41414;53.250;6.514;2022-09-27T05:30:10;10.23;;;1.33;;
55559;SDS011;41414;53.250;6.514;2022-09-27T05:32:38;8.27;;;0.85;;
55559;SDS011;41414;53.250;6.514;2022-09-27T05:35:05;6.28;;;1.52;;
55559;SDS011;41414;53.250;6.514;2022-09-27T05:37:32;4.75;;;1.45;;
55559;SDS011;41414;53.250;6.514;2022-09-27T05:39:58;6.18;;;0.95;;
55559;SDS011;41414;53.250;6.514;2022-09-27T05:42:24;7.72;;;0.90;;
55559;SDS011;41414;53.250;6.514;2022-09-27T05:44:51;7.07;;;1.10;;
55559;SDS011;41414;53.250;6.514;2022-09-27T05:47:17;6.85;;;1.60;;
55559;SDS011;41414;53.250;6.514;2022-09-27T05:49:43;3.45;;;0.82;;
55559;SDS011;41414;53.250;6.514;2022-09-27T05:52:09;7.22;;;0.90;;
55559;SDS011;41414;53.250;6.514;2022-09-27T05:54:35;7.93;;;1.27;;
55559;SDS011;41414;53.250;6.514;2022-09-27T05:57:02;6.40;;;1.20;;
55559;SDS011;41414;53.250;6.514;2022-09-27T05:59:28;5.18;;;0.70;;
55559;SDS011;41414;53.250;6.514;2022-09-27T06:01:54;5.13;;;1.20;;
55559;SDS011;41414;53.250;6.514;2022-09-27T06:04:20;6.10;;;0.98;;
55559;SDS011;41414;53.250;6.514;2022-09-27T06:06:47;4.35;;;1.15;;
55559;SDS011;41414;53.250;6.514;2022-09-27T06:09:14;4.43;;;0.80;;
55559;SDS011;41414;53.250;6.514;2022-09-27T06:11:41;6.70;;;0.98;;
55559;SDS011;41414;53.250;6.514;2022-09-27T06:14:10;12.50;;;1.60;;
55559;SDS011;41414;53.250;6.514;2022-09-27T06:16:36;5.18;;;0.90;;
55559;SDS011;41414;53.250;6.514;2022-09-27T06:19:02;8.10;;;1.08;;
55559;SDS011;41414;53.250;6.514;2022-09-27T06:21:29;6.43;;;1.00;;
55559;SDS011;41414;53.250;6.514;2022-09-27T06:23:57;7.03;;;1.33;;
55559;SDS011;41414;53.250;6.514;2022-09-27T06:26:24;7.40;;;1.58;;
55559;SDS011;41414;53.250;6.514;2022-09-27T06:28:52;9.18;;;1.27;;
55559;SDS011;41414;53.250;6.514;2022-09-27T06:31:19;5.35;;;1.33;;
55559;SDS011;41414;53.250;6.514;2022-09-27T06:33:46;9.38;;;1.30;;
55559;SDS011;41414;53.250;6.514;2022-09-27T06:36:13;8.65;;;1.17;;
55559;SDS011;41414;53.250;6.514;2022-09-27T06:38:39;4.75;;;0.85;;
55559;SDS011;41414;53.250;6.514;2022-09-27T06:41:05;9.18;;;1.67;;
55559;SDS011;41414;53.250;6.514;2022-09-27T06:43:33;4.20;;;1.05;;
55559;SDS011;41414;53.250;6.514;2022-09-27T06:46:00;5.78;;;1.10;;
55559;SDS011;41414;53.250;6.514;2022-09-27T06:48:30;5.15;;;1.20;;
55559;SDS011;41414;53.250;6.514;2022-09-27T06:50:56;11.15;;;1.38;;
55559;SDS011;41414;53.250;6.514;2022-09-27T06:53:23;8.35;;;1.50;;
55559;SDS011;41414;53.250;6.514;2022-09-27T06:55:50;9.48;;;3.00;;
55559;SDS011;41414;53.250;6.514;2022-09-27T06:58:16;8.68;;;1.70;;
55559;SDS011;41414;53.250;6.514;2022-09-27T07:01:01;7.20;;;1.70;;
55559;SDS011;41414;53.250;6.514;2022-09-27T07:03:27;7.40;;;1.35;;
55559;SDS011;41414;53.250;6.514;2022-09-27T07:06:05;3.80;;;1.52;;
55559;SDS011;41414;53.250;6.514;2022-09-27T07:08:31;9.07;;;2.33;;
55559;SDS011;41414;53.250;6.514;2022-09-27T07:11:01;9.23;;;1.00;;
55559;SDS011;41414;53.250;6.514;2022-09-27T07:13:28;7.05;;;1.30;;
55559;SDS011;41414;53.250;6.514;2022-09-27T07:15:57;9.02;;;1.35;;
55559;SDS011;41414;53.250;6.514;2022-09-27T07:18:23;5.28;;;1.10;;
55559;SDS011;41414;53.250;6.514;2022-09-27T07:20:49;5.00;;;1.55;;
55559;SDS011;41414;53.250;6.514;2022-09-27T07:23:15;7.90;;;1.65;;
55559;SDS011;41414;53.250;6.514;2022-09-27T07:25:42;6.10;;;1.48;;
55559;SDS011;41414;53.250;6.514;2022-09-27T07:28:09;3.00;;;0.98;;
55559;SDS011;41414;53.250;6.514;2022-09-27T07:30:38;5.55;;;0.98;;
55559;SDS011;41414;53.250;6.514;2022-09-27T07:33:05;8.45;;;1.48;;
55559;SDS011;41414;53.250;6.514;2022-09-27T07:35:31;2.70;;;0.90;;
55559;SDS011;41414;53.250;6.514;2022-09-27T07:37:58;5.57;;;1.60;;
55559;SDS011;41414;53.250;6.514;2022-09-27T07:40:24;8.23;;;1.30;;
55559;SDS011;41414;53.250;6.514;2022-09-27T07:42:54;3.08;;;0.82;;
55559;SDS011;41414;53.250;6.514;2022-09-27T07:45:21;5.07;;;0.90;;
55559;SDS011;41414;53.250;6.514;2022-09-27T07:47:47;2.53;;;0.52;;
55559;SDS011;41414;53.250;6.514;2022-09-27T07:50:13;2.85;;;0.40;;
55559;SDS011;41414;53.250;6.514;2022-09-27T07:52:40;2.42;;;0.80;;
55559;SDS011;41414;53.250;6.514;2022-09-27T07:55:07;2.88;;;0.80;;
55559;SDS011;41414;53.250;6.514;2022-09-27T07:57:35;5.25;;;0.90;;
55559;SDS011;41414;53.250;6.514;2022-09-27T08:00:02;4.20;;;0.85;;
55559;SDS011;41414;53.250;6.514;2022-09-27T08:02:29;3.72;;;0.73;;
55559;SDS011;41414;53.250;6.514;2022-09-27T08:04:57;3.40;;;0.73;;
55559;SDS011;41414;53.250;6.514;2022-09-27T08:07:24;2.03;;;0.80;;
55559;SDS011;41414;53.250;6.514;2022-09-27T08:09:50;2.83;;;0.70;;
55559;SDS011;41414;53.250;6.514;2022-09-27T08:12:16;2.35;;;0.47;;
55559;SDS011;41414;53.250;6.514;2022-09-27T08:14:45;2.60;;;0.60;;
55559;SDS011;41414;53.250;6.514;2022-09-27T08:17:12;2.63;;;0.45;;
55559;SDS011;41414;53.250;6.514;2022-09-27T08:19:38;1.98;;;0.30;;
55559;SDS011;41414;53.250;6.514;2022-09-27T08:22:05;2.15;;;1.05;;
55559;SDS011;41414;53.250;6.514;2022-09-27T08:24:32;3.45;;;1.08;;
55559;SDS011;41414;53.250;6.514;2022-09-27T08:26:58;2.50;;;0.32;;
55559;SDS011;41414;53.250;6.514;2022-09-27T08:29:25;3.13;;;0.55;;
55559;SDS011;41414;53.250;6.514;2022-09-27T08:31:51;2.42;;;0.52;;
55559;SDS011;41414;53.250;6.514;2022-09-27T08:34:19;1.65;;;0.50;;
55559;SDS011;41414;53.250;6.514;2022-09-27T08:36:46;3.28;;;1.10;;
55559;SDS011;41414;53.250;6.514;2022-09-27T08:39:12;3.35;;;1.20;;
55559;SDS011;41414;53.250;6.514;2022-09-27T08:41:46;2.05;;;0.75;;
55559;SDS011;41414;53.250;6.514;2022-09-27T08:44:20;4.15;;;0.85;;
55559;SDS011;41414;53.250;6.514;2022-09-27T08:49:17;3.05;;;0.75;;
55559;SDS011;41414;53.250;6.514;2022-09-27T08:51:44;2.97;;;0.65;;
55559;SDS011;41414;53.250;6.514;2022-09-27T08:54:14;4.30;;;0.60;;
55559;SDS011;41414;53.250;6.514;2022-09-27T08:56:44;2.38;;;0.60;;
55559;SDS011;41414;53.250;6.514;2022-09-27T08:59:14;4.15;;;0.70;;
55559;SDS011;41414;53.250;6.514;2022-09-27T09:01:45;4.75;;;0.90;;
55559;SDS011;41414;53.250;6.514;2022-09-27T09:04:12;6.38;;;0.90;;
55559;SDS011;41414;53.250;6.514;2022-09-27T09:09:18;5.65;;;1.00;;
55559;SDS011;41414;53.250;6.514;2022-09-27T09:19:58;7.03;;;0.80;;
55559;SDS011;41414;53.250;6.514;2022-09-27T09:22:35;2.03;;;0.60;;
55559;SDS011;41414;53.250;6.514;2022-09-27T09:25:18;4.28;;;0.98;;
55559;SDS011;41414;53.250;6.514;2022-09-27T09:27:52;2.60;;;1.13;;
55559;SDS011;41414;53.250;6.514;2022-09-27T09:30:21;4.40;;;0.98;;
55559;SDS011;41414;53.250;6.514;2022-09-27T09:32:55;2.85;;;0.90;;
55559;SDS011;41414;53.250;6.514;2022-09-27T09:35:25;4.88;;;0.80;;
55559;SDS011;41414;53.250;6.514;2022-09-27T09:37:54;2.75;;;0.40;;
55559;SDS011;41414;53.250;6.514;2022-09-27T09:42:55;1.48;;;0.47;;
55559;SDS011;41414;53.250;6.514;2022-09-27T09:45:25;3.95;;;0.50;;
55559;SDS011;41414;53.250;6.514;2022-09-27T09:47:56;3.70;;;0.50;;
55559;SDS011;41414;53.250;6.514;2022-09-27T09:50:27;1.65;;;0.60;;
55559;SDS011;41414;53.250;6.514;2022-09-27T09:53:00;6.03;;;0.60;;
55559;SDS011;41414;53.250;6.514;2022-09-27T09:55:30;4.38;;;0.47;;
55559;SDS011;41414;53.250;6.514;2022-09-27T09:58:01;3.92;;;0.60;;
55559;SDS011;41414;53.250;6.514;2022-09-27T10:00:29;3.40;;;0.60;;
55559;SDS011;41414;53.250;6.514;2022-09-27T10:02:57;3.97;;;0.63;;
55559;SDS011;41414;53.250;6.514;2022-09-27T10:05:24;2.53;;;0.60;;
55559;SDS011;41414;53.250;6.514;2022-09-27T10:07:51;1.58;;;0.40;;
55559;SDS011;41414;53.250;6.514;2022-09-27T10:10:19;3.08;;;0.40;;
55559;SDS011;41414;53.250;6.514;2022-09-27T10:12:45;3.70;;;0.50;;
55559;SDS011;41414;53.250;6.514;2022-09-27T10:15:15;3.00;;;0.40;;
55559;SDS011;41414;53.250;6.514;2022-09-27T10:17:43;2.22;;;0.45;;
55559;SDS011;41414;53.250;6.514;2022-09-27T10:20:16;3.10;;;0.50;;
55559;SDS011;41414;53.250;6.514;2022-09-27T10:22:47;5.20;;;0.70;;
55559;SDS011;41414;53.250;6.514;2022-09-27T10:25:18;2.63;;;0.47;;
55559;SDS011;41414;53.250;6.514;2022-09-27T10:27:45;2.45;;;0.57;;
55559;SDS011;41414;53.250;6.514;2022-09-27T10:30:32;6.82;;;1.60;;
55559;SDS011;41414;53.250;6.514;2022-09-27T10:33:01;6.80;;;0.63;;
55559;SDS011;41414;53.250;6.514;2022-09-27T10:40:41;4.15;;;0.20;;
55559;SDS011;41414;53.250;6.514;2022-09-27T10:43:24;0.63;;;0.28;;
55559;SDS011;41414;53.250;6.514;2022-09-27T10:45:57;2.30;;;0.38;;
55559;SDS011;41414;53.250;6.514;2022-09-27T10:48:24;2.15;;;0.40;;
55559;SDS011;41414;53.250;6.514;2022-09-27T10:50:55;2.08;;;0.73;;
55559;SDS011;41414;53.250;6.514;2022-09-27T10:53:22;4.70;;;0.40;;
55559;SDS011;41414;53.250;6.514;2022-09-27T10:55:49;1.25;;;0.40;;
55559;SDS011;41414;53.250;6.514;2022-09-27T10:58:17;2.15;;;0.32;;
55559;SDS011;41414;53.250;6.514;2022-09-27T11:00:44;2.75;;;0.35;;
55559;SDS011;41414;53.250;6.514;2022-09-27T11:03:19;0.45;;;0.10;;
55559;SDS011;41414;53.250;6.514;2022-09-27T11:05:45;1.23;;;0.20;;
55559;SDS011;41414;53.250;6.514;2022-09-27T11:11:09;2.00;;;0.28;;
55559;SDS011;41414;53.250;6.514;2022-09-27T11:13:41;1.95;;;0.68;;
55559;SDS011;41414;53.250;6.514;2022-09-27T11:21:26;1.20;;;0.38;;
55559;SDS011;41414;53.250;6.514;2022-09-27T11:29:21;1.08;;;0.20;;
55559;SDS011;41414;53.250;6.514;2022-09-27T11:31:57;1.40;;;0.40;;
55559;SDS011;41414;53.250;6.514;2022-09-27T11:37:06;2.28;;;0.30;;
55559;SDS011;41414;53.250;6.514;2022-09-27T11:52:44;3.83;;;0.30;;
55559;SDS011;41414;53.250;6.514;2022-09-27T11:57:46;1.35;;;0.20;;
55559;SDS011;41414;53.250;6.514;2022-09-27T12:00:19;2.67;;;0.20;;
55559;SDS011;41414;53.250;6.514;2022-09-27T12:05:35;0.55;;;0.13;;
55559;SDS011;41414;53.250;6.514;2022-09-27T12:08:11;0.82;;;0.10;;
55559;SDS011;41414;53.250;6.514;2022-09-27T12:10:41;2.33;;;0.40;;
55559;SDS011;41414;53.250;6.514;2022-09-27T12:13:12;0.80;;;0.32;;
55559;SDS011;41414;53.250;6.514;2022-09-27T12:15:40;2.45;;;0.38;;
55559;SDS011;41414;53.250;6.514;2022-09-27T12:20:44;5.95;;;0.75;;
55559;SDS011;41414;53.250;6.514;2022-09-27T12:23:17;1.67;;;0.40;;
55559;SDS011;41414;53.250;6.514;2022-09-27T12:25:45;5.57;;;0.98;;
55559;SDS011;41414;53.250;6.514;2022-09-27T12:28:20;2.53;;;0.50;;
55559;SDS011;41414;53.250;6.514;2022-09-27T12:30:53;1.85;;;0.40;;
55559;SDS011;41414;53.250;6.514;2022-09-27T12:35:49;1.55;;;0.47;;
55559;SDS011;41414;53.250;6.514;2022-09-27T12:38:22;1.15;;;0.40;;
55559;SDS011;41414;53.250;6.514;2022-09-27T12:40:50;2.97;;;0.80;;
55559;SDS011;41414;53.250;6.514;2022-09-27T12:43:18;2.95;;;0.80;;
55559;SDS011;41414;53.250;6.514;2022-09-27T12:48:17;2.47;;;0.55;;
55559;SDS011;41414;53.250;6.514;2022-09-27T12:50:51;3.67;;;0.68;;
55559;SDS011;41414;53.250;6.514;2022-09-27T12:53:23;4.30;;;0.90;;
55559;SDS011;41414;53.250;6.514;2022-09-27T12:55:54;2.20;;;0.55;;
55559;SDS011;41414;53.250;6.514;2022-09-27T12:58:41;1.35;;;0.40;;
55559;SDS011;41414;53.250;6.514;2022-09-27T13:03:42;1.90;;;0.50;;
55559;SDS011;41414;53.250;6.514;2022-09-27T13:08:52;1.52;;;0.40;;
55559;SDS011;41414;53.250;6.514;2022-09-27T13:11:23;1.25;;;0.20;;
55559;SDS011;41414;53.250;6.514;2022-09-27T13:13:57;2.03;;;0.40;;
55559;SDS011;41414;53.250;6.514;2022-09-27T13:16:24;3.80;;;1.15;;
55559;SDS011;41414;53.250;6.514;2022-09-27T13:18:53;1.55;;;0.52;;
55559;SDS011;41414;53.250;6.514;2022-09-27T13:26:55;4.07;;;0.40;;
55559;SDS011;41414;53.250;6.514;2022-09-27T13:29:28;2.15;;;0.30;;
55559;SDS011;41414;53.250;6.514;2022-09-27T13:34:37;3.03;;;0.60;;
55559;SDS011;41414;53.250;6.514;2022-09-27T13:39:49;1.95;;;0.50;;
55559;SDS011;41414;53.250;6.514;2022-09-27T13:42:35;1.55;;;0.40;;
55559;SDS011;41414;53.250;6.514;2022-09-27T13:45:12;1.65;;;0.40;;
55559;SDS011;41414;53.250;6.514;2022-09-27T13:47:45;1.95;;;0.43;;
55559;SDS011;41414;53.250;6.514;2022-09-27T13:50:16;3.40;;;0.52;;
55559;SDS011;41414;53.250;6.514;2022-09-27T13:52:52;2.05;;;0.52;;
55559;SDS011;41414;53.250;6.514;2022-09-27T13:55:38;2.25;;;0.70;;
55559;SDS011;41414;53.250;6.514;2022-09-27T13:58:11;1.33;;;0.50;;
55559;SDS011;41414;53.250;6.514;2022-09-27T14:00:41;1.73;;;0.68;;
55559;SDS011;41414;53.250;6.514;2022-09-27T14:05:40;4.75;;;0.52;;
55559;SDS011;41414;53.250;6.514;2022-09-27T14:08:12;3.75;;;0.50;;
55559;SDS011;41414;53.250;6.514;2022-09-27T14:10:41;3.92;;;0.60;;
55559;SDS011;41414;53.250;6.514;2022-09-27T14:13:08;8.30;;;0.60;;
55559;SDS011;41414;53.250;6.514;2022-09-27T14:15:35;3.30;;;0.40;;
55559;SDS011;41414;53.250;6.514;2022-09-27T14:18:02;1.38;;;0.52;;
55559;SDS011;41414;53.250;6.514;2022-09-27T14:20:29;1.17;;;0.38;;
55559;SDS011;41414;53.250;6.514;2022-09-27T14:22:57;1.80;;;0.35;;
55559;SDS011;41414;53.250;6.514;2022-09-27T14:25:23;1.10;;;0.40;;
55559;SDS011;41414;53.250;6.514;2022-09-27T14:27:50;1.67;;;0.40;;
55559;SDS011;41414;53.250;6.514;2022-09-27T14:30:17;2.63;;;0.43;;
55559;SDS011;41414;53.250;6.514;2022-09-27T14:32:51;0.90;;;0.30;;
55559;SDS011;41414;53.250;6.514;2022-09-27T14:35:20;1.92;;;0.40;;
55559;SDS011;41414;53.250;6.514;2022-09-27T14:38:07;2.42;;;0.65;;
55559;SDS011;41414;53.250;6.514;2022-09-27T14:40:36;2.30;;;0.60;;
55559;SDS011;41414;53.250;6.514;2022-09-27T14:43:05;1.65;;;0.63;;
55559;SDS011;41414;53.250;6.514;2022-09-27T14:45:34;2.35;;;0.57;;
55559;SDS011;41414;53.250;6.514;2022-09-27T14:48:01;3.65;;;0.80;;
55559;SDS011;41414;53.250;6.514;2022-09-27T14:50:28;4.18;;;0.80;;
55559;SDS011;41414;53.250;6.514;2022-09-27T14:52:55;5.00;;;0.50;;
55559;SDS011;41414;53.250;6.514;2022-09-27T14:55:24;4.40;;;0.50;;
55559;SDS011;41414;53.250;6.514;2022-09-27T14:57:53;5.18;;;1.00;;
55559;SDS011;41414;53.250;6.514;2022-09-27T15:00:22;4.95;;;0.60;;
55559;SDS011;41414;53.250;6.514;2022-09-27T15:02:51;2.85;;;0.40;;
55559;SDS011;41414;53.250;6.514;2022-09-27T15:05:20;2.00;;;0.40;;
55559;SDS011;41414;53.250;6.514;2022-09-27T15:07:47;4.97;;;0.75;;
55559;SDS011;41414;53.250;6.514;2022-09-27T15:10:14;2.30;;;0.70;;
55559;SDS011;41414;53.250;6.514;2022-09-27T15:12:42;2.55;;;0.40;;
55559;SDS011;41414;53.250;6.514;2022-09-27T15:15:13;2.38;;;0.50;;
55559;SDS011;41414;53.250;6.514;2022-09-27T15:17:42;2.08;;;0.75;;
55559;SDS011;41414;53.250;6.514;2022-09-27T15:22:54;3.30;;;0.70;;
55559;SDS011;41414;53.250;6.514;2022-09-27T15:25:23;1.42;;;0.70;;
55559;SDS011;41414;53.250;6.514;2022-09-27T15:27:59;3.67;;;1.38;;
55559;SDS011;41414;53.250;6.514;2022-09-27T15:30:27;3.58;;;0.68;;
55559;SDS011;41414;53.250;6.514;2022-09-27T15:32:57;2.10;;;0.40;;
55559;SDS011;41414;53.250;6.514;2022-09-27T15:35:25;0.95;;;0.50;;
55559;SDS011;41414;53.250;6.514;2022-09-27T15:38:01;1.80;;;0.55;;
55559;SDS011;41414;53.250;6.514;2022-09-27T15:43:12;2.33;;;0.50;;
55559;SDS011;41414;53.250;6.514;2022-09-27T15:45:47;1.65;;;0.60;;
55559;SDS011;41414;53.250;6.514;2022-09-27T15:48:14;1.83;;;0.40;;
55559;SDS011;41414;53.250;6.514;2022-09-27T15:50:41;1.83;;;0.50;;
55559;SDS011;41414;53.250;6.514;2022-09-27T15:53:08;1.70;;;0.50;;
55559;SDS011;41414;53.250;6.514;2022-09-27T15:55:38;2.35;;;0.40;;
55559;SDS011;41414;53.250;6.514;2022-09-27T15:58:05;3.20;;;0.90;;
55559;SDS011;41414;53.250;6.514;2022-09-27T16:00:33;2.75;;;0.50;;
55559;SDS011;41414;53.250;6.514;2022-09-27T16:03:00;4.03;;;0.63;;
55559;SDS011;41414;53.250;6.514;2022-09-27T16:05:27;8.10;;;1.20;;
55559;SDS011;41414;53.250;6.514;2022-09-27T16:07:54;1.45;;;0.82;;
55559;SDS011;41414;53.250;6.514;2022-09-27T16:10:25;2.58;;;1.25;;
55559;SDS011;41414;53.250;6.514;2022-09-27T16:12:52;2.28;;;0.82;;
55559;SDS011;41414;53.250;6.514;2022-09-27T16:15:18;2.05;;;1.13;;
55559;SDS011;41414;53.250;6.514;2022-09-27T16:17:44;3.05;;;1.02;;
55559;SDS011;41414;53.250;6.514;2022-09-27T16:20:14;1.80;;;0.52;;
55559;SDS011;41414;53.250;6.514;2022-09-27T16:22:41;2.30;;;0.70;;
55559;SDS011;41414;53.250;6.514;2022-09-27T16:25:08;1.85;;;1.20;;
55559;SDS011;41414;53.250;6.514;2022-09-27T16:27:34;2.05;;;0.52;;
55559;SDS011;41414;53.250;6.514;2022-09-27T16:30:00;7.28;;;0.80;;
55559;SDS011;41414;53.250;6.514;2022-09-27T16:32:27;2.05;;;0.82;;
55559;SDS011;41414;53.250;6.514;2022-09-27T16:34:54;4.25;;;1.00;;
55559;SDS011;41414;53.250;6.514;2022-09-27T16:37:21;2.20;;;1.15;;
55559;SDS011;41414;53.250;6.514;2022-09-27T16:39:47;3.58;;;1.38;;
55559;SDS011;41414;53.250;6.514;2022-09-27T16:42:13;3.67;;;1.70;;
55559;SDS011;41414;53.250;6.514;2022-09-27T16:44:41;4.80;;;1.50;;
55559;SDS011;41414;53.250;6.514;2022-09-27T16:47:07;6.18;;;1.60;;
55559;SDS011;41414;53.250;6.514;2022-09-27T16:49:34;2.45;;;1.20;;
55559;SDS011;41414;53.250;6.514;2022-09-27T16:52:19;5.93;;;1.30;;